Lake Worth, FL (33467)

8:22 AM EDT on September 01, 2015 (GMT -0400)
D A N E T S | | Change Station
CLOSE
Current Station
Personal Weather Station
Location: Lake Worth, FL
Elevation: 25 ft
Nearby Weather Stations

Elev 25 ft 26.61 °N, 80.17 °W | Updated 1 minute ago

Partly Cloudy
Partly Cloudy
76.1 °F
Feels Like 75 °F
N
0.0
Wind Variable Wind from West
Gusts 0.0 mph

Today
High -- | Low -- °F
--% Chance of Precip.
Yesterday
High -- | Low -- °F
Precip. -- in
7:00 AM 7:40 PM
Waning Gibbous, 89% visible
Pressure 30.09 in
Visibility 10.0 miles
Clouds Scattered Clouds 2300 ft
Scattered Clouds 3400 ft
Mostly Cloudy 25000 ft
Heat Index 75 °F
Dew Point 75 °F
Humidity 97%
Rainfall 0.00 in
Snow Depth Not available.
UV 0.5 out of 12
Pollen 4.80 out of 12
Air Quality Not available.
Flu Activity Not available.
METAR KPBI 011153Z 29004KT 10SM SCT023TCU SCT034 BKN250 25/24 A3009 RMK AO2 SLP187 TCU NE-S T02500239 10261 20239 51021 $
Pressure 30.09 in
Visibility 10.0 miles
Clouds Scattered Clouds 2300 ft
Scattered Clouds 3400 ft
Mostly Cloudy 25000 ft
Heat Index 75 °F
Dew Point 75 °F
Humidity 97%
Rainfall 0.00 in
Snow Depth Not available.
UV 0.5 out of 12
Pollen 4.80 out of 12
Air Quality Not available.
Flu Activity Not available.
METAR KPBI 011153Z 29004KT 10SM SCT023TCU SCT034 BKN250 25/24 A3009 RMK AO2 SLP187 TCU NE-S T02500239 10261 20239 51021 $
Nowcast | as of 7:02 am EDT on September 1, 2015

Isolated showers will continue to develop over the water off the Southeast Florida coast this morning with a few moving onshore. There is just a slight chance of a thunderstorm as well.

×

10-Day Weather Forecast

×

Almanac

Astronomy

Sep. 01, 2015 Rise Set
Actual Time
Civil Twilight
Nautical Twilight
Astronomical Twilight
Moon
Length of Visible Light
Length of Day
Tomorrow will be .
, % of the Moon is Illuminated

Today's Extremes

State Highs State Lows

Community

WunderPhotos

Upload Photos

1,851,508 photos uploaded!

WunderBlogs® & News

Nearby

Air Quality

  Air Quality AQ Index Pollutant
Not available.

Snow Depth

Station Depth Elevation

Earthquake Activity

City Distance Mag. Time & Date
Minimum magnitude displayed is 2.5.

Coastal Water Temperatures

Place Temperature

Stations

Nearby Weather Stations

Station Location Temp. Windchill Dew Point Humidity Wind Precip. Elev Updated Type